SBOSBO PRN / BKPR
Speedbird OnlineSpeedbird Online PRN / BKPR

Priština International Airport
08:46 8°C

Location Pristina, Serbia
Latitude: 42.5728
Longitude: 21.035801
Web Airport Website | Wikipedia
Altitude 545 Meter / 1789 Feet
Distance 1,860 KM / 1,156 Miles
from London.
Time Zone UTC +2 hours (Europe/Belgrade)
Codes IATA: PRN
ICAO: BKPR
Currency £1 equals RSD 134.44
Runways
RunwayLength (m)Surface
173040Asphalt
353040Asphalt
Radio
TypeDescriptionFrequency
APPAPP118.775
GNDGND118
RMPRAMP OPR136.8
TWRTWR120.125
Live ATC
METAR BKPR 060630Z VRB02KT 5000 BR FEW008 08/05 Q1029 NOSIG
TAF TAF BKPR 060530Z 0606/0706 03006KT 2000 BR SCT005 BECMG 0606/0608 CAVOK
Weather As Of 06 Oct 2022 08:46
Description Mist
Wind 4 km/h from North (0°)
Cloud Cover 20%
Precipitation Rain: none, Snow: none
Sunrise 06:38
Sunset 18:09
Rotations During the last 90 days there were
18 flights from LHR
18 flights to LHR


© 2017-2022 Speedbird Online